BAW37J EGLL-KJFK
Flight info
| Callsign | BAW37J |
|---|---|
| Flight time | 6h 20m |
| Altitude | 38000 |
| Route | CPT5J CPT L9 BUCGO DCT FELCA DCT OFSOX DCT BANBA DCT TOBOR/M085F380 NATC ELSIR/N0479F380 N402C ALLEX DCT ENE PARCH4 |
| Aircraft | A35K/H-SDE2E3GHIJ3J4J5LM1ORWXY/LB1D1 |
Departure
| Time | 2026-05-06 09:31 |
|---|---|
| Airport | London Heathrow Airport (EGLL) |
Arrival
| Time | 2026-05-06 15:52 |
|---|---|
| Airport | John F. Kennedy International Airport (KJFK) |
| Time | Latitude | Longitude | Altitude | Speed | Heading |
|---|---|---|---|---|---|
| 2026-05-06 08:44 | 51.47061 | -0.48591 | 96 ft | 0 kts | 269° |
| 2026-05-06 09:08 | 51.47060 | -0.48591 | 92 ft | 0 kts | 269° |
| 2026-05-06 09:09 | 51.47061 | -0.48556 | 92 ft | 4 kts | 269° |
| 2026-05-06 09:09 | 51.47061 | -0.48520 | 93 ft | 3 kts | 269° |
| 2026-05-06 09:09 | 51.47066 | -0.48483 | 93 ft | 4 kts | 221° |
| 2026-05-06 09:09 | 51.47086 | -0.48472 | 93 ft | 4 kts | 179° |
| 2026-05-06 09:10 | 51.47113 | -0.48472 | 93 ft | 4 kts | 179° |
| 2026-05-06 09:10 | 51.47118 | -0.48472 | 93 ft | 0 kts | 179° |
| 2026-05-06 09:10 | 51.47117 | -0.48472 | 93 ft | 0 kts | 179° |
| 2026-05-06 09:17 | 51.47112 | -0.48472 | 93 ft | 2 kts | 180° |
| 2026-05-06 09:18 | 51.47084 | -0.48472 | 94 ft | 6 kts | 179° |
| 2026-05-06 09:18 | 51.47031 | -0.48471 | 95 ft | 9 kts | 179° |
| 2026-05-06 09:18 | 51.46955 | -0.48469 | 96 ft | 13 kts | 180° |
| 2026-05-06 09:18 | 51.46874 | -0.48470 | 95 ft | 10 kts | 179° |
| 2026-05-06 09:19 | 51.46842 | -0.48469 | 95 ft | 0 kts | 179° |
| 2026-05-06 09:25 | 51.46837 | -0.48469 | 92 ft | 2 kts | 179° |
| 2026-05-06 09:25 | 51.46811 | -0.48469 | 92 ft | 6 kts | 179° |
| 2026-05-06 09:25 | 51.46763 | -0.48483 | 94 ft | 8 kts | 210° |
| 2026-05-06 09:26 | 51.46743 | -0.48571 | 93 ft | 10 kts | 268° |
| 2026-05-06 09:26 | 51.46738 | -0.48697 | 94 ft | 12 kts | 251° |
| 2026-05-06 09:26 | 51.46663 | -0.48746 | 94 ft | 13 kts | 182° |
| 2026-05-06 09:26 | 51.46612 | -0.48761 | 95 ft | 0 kts | 197° |
| 2026-05-06 09:27 | 51.46608 | -0.48763 | 95 ft | 2 kts | 197° |
| 2026-05-06 09:27 | 51.46584 | -0.48775 | 94 ft | 5 kts | 197° |
| 2026-05-06 09:27 | 51.46512 | -0.48773 | 97 ft | 16 kts | 152° |
| 2026-05-06 09:27 | 51.46479 | -0.48618 | 95 ft | 12 kts | 89° |
| 2026-05-06 09:28 | 51.46479 | -0.48606 | 94 ft | 0 kts | 89° |
| 2026-05-06 09:30 | 51.46479 | -0.48574 | 92 ft | 13 kts | 89° |
| 2026-05-06 09:30 | 51.46481 | -0.48048 | 93 ft | 86 kts | 90° |
| 2026-05-06 09:30 | 51.46484 | -0.46707 | 98 ft | 152 kts | 90° |
| 2026-05-06 09:31 | 51.46484 | -0.44747 | 374 ft | 187 kts | 85° |
| 2026-05-06 09:31 | 51.46479 | -0.42610 | 1132 ft | 199 kts | 86° |
| 2026-05-06 09:31 | 51.46469 | -0.40286 | 1845 ft | 217 kts | 88° |
| 2026-05-06 09:31 | 51.46207 | -0.37821 | 2496 ft | 235 kts | 110° |
| 2026-05-06 09:32 | 51.45170 | -0.35700 | 3168 ft | 254 kts | 140° |
| 2026-05-06 09:32 | 51.43513 | -0.34545 | 3872 ft | 270 kts | 169° |
| 2026-05-06 09:32 | 51.41617 | -0.34706 | 4583 ft | 279 kts | 198° |
| 2026-05-06 09:32 | 51.39895 | -0.36111 | 5427 ft | 278 kts | 217° |
| 2026-05-06 09:33 | 51.38356 | -0.37968 | 6449 ft | 275 kts | 225° |
| 2026-05-06 09:33 | 51.37141 | -0.40283 | 7405 ft | 271 kts | 244° |
| 2026-05-06 09:33 | 51.36556 | -0.43120 | 8275 ft | 269 kts | 268° |
| 2026-05-06 09:33 | 51.36603 | -0.46077 | 9174 ft | 272 kts | 280° |
| 2026-05-06 09:34 | 51.36970 | -0.49062 | 10058 ft | 277 kts | 286° |
| 2026-05-06 09:34 | 51.37507 | -0.52110 | 10590 ft | 296 kts | 289° |
| 2026-05-06 09:34 | 51.38141 | -0.55381 | 11024 ft | 317 kts | 289° |
| 2026-05-06 09:34 | 51.38809 | -0.58843 | 11577 ft | 333 kts | 288° |
| 2026-05-06 09:35 | 51.39472 | -0.62460 | 12313 ft | 342 kts | 287° |
| 2026-05-06 09:35 | 51.40170 | -0.66127 | 13189 ft | 347 kts | 291° |
| 2026-05-06 09:35 | 51.41098 | -0.69716 | 14021 ft | 352 kts | 294° |
| 2026-05-06 09:35 | 51.42116 | -0.73315 | 14776 ft | 357 kts | 295° |
| 2026-05-06 09:36 | 51.43182 | -0.76902 | 15731 ft | 355 kts | 296° |
| 2026-05-06 09:36 | 51.44266 | -0.80472 | 16572 ft | 358 kts | 296° |
| 2026-05-06 09:36 | 51.45371 | -0.84087 | 17323 ft | 364 kts | 296° |
| 2026-05-06 09:36 | 51.46486 | -0.87744 | 18128 ft | 370 kts | 296° |
| 2026-05-06 09:37 | 51.47622 | -0.91489 | 18816 ft | 375 kts | 295° |
| 2026-05-06 09:37 | 51.48753 | -0.95235 | 19523 ft | 381 kts | 295° |
| 2026-05-06 09:37 | 51.49903 | -0.99060 | 20388 ft | 381 kts | 295° |
| 2026-05-06 09:37 | 51.51062 | -1.02930 | 21054 ft | 387 kts | 295° |
| 2026-05-06 09:38 | 51.52231 | -1.06838 | 21832 ft | 390 kts | 295° |
| 2026-05-06 09:38 | 51.53406 | -1.10777 | 22573 ft | 394 kts | 295° |
| 2026-05-06 09:38 | 51.54595 | -1.14772 | 23277 ft | 398 kts | 295° |
| 2026-05-06 09:38 | 51.55796 | -1.18810 | 23901 ft | 403 kts | 295° |
| 2026-05-06 09:39 | 51.57008 | -1.22895 | 24435 ft | 409 kts | 295° |
| 2026-05-06 09:39 | 51.58236 | -1.27039 | 25042 ft | 412 kts | 295° |
| 2026-05-06 09:39 | 51.59476 | -1.31226 | 25624 ft | 415 kts | 295° |
| 2026-05-06 09:39 | 51.60720 | -1.35434 | 26271 ft | 417 kts | 295° |
| 2026-05-06 09:40 | 51.61952 | -1.39607 | 26875 ft | 421 kts | 295° |
| 2026-05-06 09:40 | 51.63229 | -1.43945 | 27392 ft | 427 kts | 295° |
| 2026-05-06 09:40 | 51.65773 | -1.52611 | 28486 ft | 434 kts | 295° |
| 2026-05-06 09:41 | 51.67063 | -1.57013 | 29122 ft | 436 kts | 295° |
| 2026-05-06 09:41 | 51.68361 | -1.61452 | 29624 ft | 440 kts | 295° |
| 2026-05-06 09:41 | 51.69584 | -1.65982 | 30187 ft | 442 kts | 290° |
| 2026-05-06 09:41 | 51.70455 | -1.70757 | 30571 ft | 447 kts | 282° |
| 2026-05-06 09:42 | 51.71026 | -1.75693 | 31022 ft | 450 kts | 279° |
| 2026-05-06 09:42 | 51.71452 | -1.80698 | 31460 ft | 452 kts | 277° |
| 2026-05-06 09:42 | 51.71806 | -1.85766 | 31843 ft | 456 kts | 276° |
| 2026-05-06 09:42 | 51.72135 | -1.90804 | 32191 ft | 460 kts | 276° |
| 2026-05-06 09:43 | 51.72461 | -1.95935 | 32640 ft | 461 kts | 276° |
| 2026-05-06 09:43 | 51.72847 | -2.01083 | 33037 ft | 463 kts | 279° |
| 2026-05-06 09:43 | 51.73369 | -2.06223 | 33399 ft | 466 kts | 279° |
| 2026-05-06 09:43 | 51.73941 | -2.11384 | 33747 ft | 468 kts | 280° |
| 2026-05-06 09:44 | 51.74537 | -2.16547 | 34218 ft | 467 kts | 280° |
| 2026-05-06 09:44 | 51.75139 | -2.21691 | 34638 ft | 466 kts | 280° |
| 2026-05-06 09:44 | 51.75739 | -2.26838 | 34984 ft | 467 kts | 280° |
| 2026-05-06 09:44 | 51.76334 | -2.31986 | 35317 ft | 468 kts | 280° |
| 2026-05-06 09:45 | 51.76925 | -2.37154 | 35647 ft | 468 kts | 280° |
| 2026-05-06 09:45 | 51.77503 | -2.42254 | 35968 ft | 468 kts | 280° |
| 2026-05-06 09:45 | 51.78085 | -2.47419 | 36332 ft | 467 kts | 279° |
| 2026-05-06 09:45 | 51.78662 | -2.52582 | 36704 ft | 467 kts | 279° |
| 2026-05-06 09:46 | 51.79237 | -2.57744 | 37020 ft | 467 kts | 279° |
| 2026-05-06 09:46 | 51.79810 | -2.62910 | 37292 ft | 468 kts | 279° |
| 2026-05-06 09:46 | 51.80382 | -2.68090 | 37566 ft | 469 kts | 279° |
| 2026-05-06 09:46 | 51.80953 | -2.73279 | 37843 ft | 469 kts | 279° |
| 2026-05-06 09:47 | 51.81523 | -2.78477 | 38026 ft | 472 kts | 279° |
| 2026-05-06 09:47 | 51.82096 | -2.83736 | 38051 ft | 478 kts | 279° |
| 2026-05-06 09:47 | 51.83248 | -2.94358 | 38050 ft | 487 kts | 279° |
| 2026-05-06 09:48 | 51.84414 | -3.05209 | 38048 ft | 492 kts | 279° |
| 2026-05-06 09:48 | 51.85577 | -3.16128 | 38040 ft | 494 kts | 279° |
| 2026-05-06 09:49 | 51.86733 | -3.27088 | 38039 ft | 494 kts | 279° |
| 2026-05-06 09:49 | 51.87880 | -3.38054 | 38033 ft | 494 kts | 279° |
| 2026-05-06 09:50 | 51.88823 | -3.47160 | 38028 ft | 494 kts | 279° |
| 2026-05-06 09:50 | 51.90137 | -3.59965 | 38025 ft | 493 kts | 279° |
| 2026-05-06 09:51 | 51.91063 | -3.69073 | 38027 ft | 493 kts | 279° |
| 2026-05-06 09:51 | 51.92345 | -3.81808 | 38023 ft | 493 kts | 279° |
| 2026-05-06 09:52 | 51.93436 | -3.92766 | 38022 ft | 493 kts | 279° |
| 2026-05-06 09:52 | 51.94336 | -4.01880 | 38021 ft | 492 kts | 279° |
| 2026-05-06 09:53 | 51.95408 | -4.12834 | 38021 ft | 492 kts | 278° |
| 2026-05-06 09:53 | 51.96642 | -4.25582 | 38022 ft | 492 kts | 278° |
| 2026-05-06 09:54 | 51.97690 | -4.36541 | 38023 ft | 492 kts | 278° |
| 2026-05-06 09:54 | 51.98555 | -4.45661 | 38024 ft | 492 kts | 278° |
| 2026-05-06 09:55 | 51.99584 | -4.56616 | 38024 ft | 491 kts | 278° |
| 2026-05-06 09:55 | 52.00604 | -4.67580 | 38027 ft | 491 kts | 278° |
| 2026-05-06 09:56 | 52.01609 | -4.78512 | 38024 ft | 483 kts | 278° |
| 2026-05-06 09:56 | 52.02578 | -4.89158 | 38029 ft | 476 kts | 278° |
| 2026-05-06 09:57 | 52.03537 | -4.99809 | 38030 ft | 482 kts | 278° |
| 2026-05-06 09:57 | 52.04493 | -5.10587 | 38032 ft | 483 kts | 278° |
| 2026-05-06 09:58 | 52.05447 | -5.21383 | 38033 ft | 483 kts | 278° |
| 2026-05-06 09:58 | 52.06387 | -5.32182 | 38033 ft | 483 kts | 278° |
| 2026-05-06 09:59 | 52.07314 | -5.42890 | 38035 ft | 483 kts | 278° |
| 2026-05-06 09:59 | 52.08239 | -5.53690 | 38038 ft | 483 kts | 278° |
| 2026-05-06 10:00 | 52.09145 | -5.64440 | 38040 ft | 482 kts | 278° |
| 2026-05-06 10:00 | 52.10047 | -5.75250 | 38043 ft | 482 kts | 278° |
| 2026-05-06 10:01 | 52.10940 | -5.86066 | 38040 ft | 482 kts | 277° |
| 2026-05-06 10:01 | 52.11545 | -5.93498 | 38042 ft | 483 kts | 277° |
| 2026-05-06 10:02 | 52.12423 | -6.04331 | 38043 ft | 483 kts | 277° |
| 2026-05-06 10:02 | 52.13286 | -6.15104 | 38042 ft | 483 kts | 277° |
| 2026-05-06 10:03 | 52.14143 | -6.25936 | 38045 ft | 482 kts | 277° |
| 2026-05-06 10:03 | 52.14988 | -6.36760 | 38041 ft | 482 kts | 277° |
| 2026-05-06 10:04 | 52.15824 | -6.47593 | 38044 ft | 482 kts | 277° |
| 2026-05-06 10:04 | 52.16643 | -6.58352 | 38043 ft | 482 kts | 277° |
| 2026-05-06 10:05 | 52.17459 | -6.69181 | 38044 ft | 482 kts | 277° |
| 2026-05-06 10:05 | 52.18263 | -6.80009 | 38048 ft | 482 kts | 277° |
| 2026-05-06 10:06 | 52.19058 | -6.90841 | 38042 ft | 482 kts | 277° |
| 2026-05-06 10:06 | 52.19844 | -7.01693 | 38048 ft | 482 kts | 277° |
| 2026-05-06 10:07 | 52.20615 | -7.12480 | 38047 ft | 483 kts | 277° |
| 2026-05-06 10:07 | 52.21382 | -7.23355 | 38049 ft | 483 kts | 277° |
| 2026-05-06 10:08 | 52.22140 | -7.34231 | 38046 ft | 483 kts | 277° |
| 2026-05-06 10:08 | 52.22886 | -7.45113 | 38045 ft | 483 kts | 277° |
| 2026-05-06 10:09 | 52.23618 | -7.55917 | 38047 ft | 482 kts | 277° |
| 2026-05-06 10:09 | 52.24344 | -7.66792 | 38047 ft | 482 kts | 277° |
| 2026-05-06 10:10 | 52.25061 | -7.77671 | 38046 ft | 482 kts | 277° |
| 2026-05-06 10:10 | 52.25768 | -7.88560 | 38047 ft | 482 kts | 276° |
| 2026-05-06 10:11 | 52.26465 | -7.99458 | 38044 ft | 483 kts | 277° |
| 2026-05-06 10:11 | 52.27148 | -8.10302 | 38041 ft | 484 kts | 277° |
| 2026-05-06 10:12 | 52.27827 | -8.21228 | 38042 ft | 484 kts | 276° |
| 2026-05-06 10:12 | 52.28495 | -8.32162 | 38045 ft | 484 kts | 276° |
| 2026-05-06 10:13 | 52.29153 | -8.43092 | 38041 ft | 484 kts | 276° |
| 2026-05-06 10:13 | 52.29802 | -8.54039 | 38044 ft | 484 kts | 276° |
| 2026-05-06 10:14 | 52.30437 | -8.64923 | 38044 ft | 485 kts | 276° |
| 2026-05-06 10:14 | 52.31066 | -8.75887 | 38048 ft | 485 kts | 276° |
| 2026-05-06 10:15 | 52.31686 | -8.86863 | 38050 ft | 485 kts | 276° |
| 2026-05-06 10:15 | 52.32294 | -8.97827 | 38047 ft | 485 kts | 276° |
| 2026-05-06 10:16 | 52.32889 | -9.08733 | 38049 ft | 485 kts | 276° |
| 2026-05-06 10:16 | 52.33478 | -9.19723 | 38053 ft | 485 kts | 276° |
| 2026-05-06 10:17 | 52.34057 | -9.30711 | 38054 ft | 485 kts | 276° |
| 2026-05-06 10:17 | 52.34626 | -9.41707 | 38047 ft | 485 kts | 276° |
| 2026-05-06 10:18 | 52.35181 | -9.52633 | 38051 ft | 486 kts | 276° |
| 2026-05-06 10:18 | 52.35731 | -9.63657 | 38052 ft | 486 kts | 276° |
| 2026-05-06 10:19 | 52.36271 | -9.74687 | 38048 ft | 487 kts | 276° |
| 2026-05-06 10:19 | 52.36800 | -9.85731 | 38053 ft | 487 kts | 276° |
| 2026-05-06 10:20 | 52.37316 | -9.96694 | 38059 ft | 487 kts | 276° |
| 2026-05-06 10:20 | 52.37825 | -10.07739 | 38058 ft | 486 kts | 276° |
| 2026-05-06 10:21 | 52.38324 | -10.18782 | 38061 ft | 487 kts | 276° |
| 2026-05-06 10:21 | 52.38812 | -10.29823 | 38058 ft | 487 kts | 276° |
| 2026-05-06 10:22 | 52.39287 | -10.40802 | 38054 ft | 487 kts | 275° |
| 2026-05-06 10:22 | 52.39755 | -10.51853 | 38056 ft | 487 kts | 275° |
| 2026-05-06 10:23 | 52.40213 | -10.62909 | 38059 ft | 487 kts | 275° |
| 2026-05-06 10:23 | 52.40660 | -10.73973 | 38054 ft | 487 kts | 275° |
| 2026-05-06 10:24 | 52.41094 | -10.84954 | 38057 ft | 487 kts | 275° |
| 2026-05-06 10:24 | 52.41521 | -10.96017 | 38057 ft | 487 kts | 275° |
| 2026-05-06 10:25 | 52.41938 | -11.07095 | 38061 ft | 488 kts | 275° |
| 2026-05-06 10:25 | 52.42346 | -11.18204 | 38057 ft | 489 kts | 275° |
| 2026-05-06 10:26 | 52.42740 | -11.29241 | 38060 ft | 489 kts | 275° |
| 2026-05-06 10:26 | 52.43127 | -11.40353 | 38060 ft | 489 kts | 275° |
| 2026-05-06 10:27 | 52.43504 | -11.51473 | 38060 ft | 489 kts | 275° |
| 2026-05-06 10:27 | 52.43870 | -11.62613 | 38065 ft | 490 kts | 275° |
| 2026-05-06 10:28 | 52.44227 | -11.73762 | 38064 ft | 490 kts | 275° |
| 2026-05-06 10:28 | 52.44570 | -11.84834 | 38065 ft | 490 kts | 275° |
| 2026-05-06 10:29 | 52.44906 | -11.95983 | 38066 ft | 490 kts | 275° |
| 2026-05-06 10:29 | 52.45231 | -12.07133 | 38063 ft | 490 kts | 275° |
| 2026-05-06 10:30 | 52.45546 | -12.18292 | 38066 ft | 490 kts | 275° |
| 2026-05-06 10:30 | 52.45848 | -12.29387 | 38068 ft | 490 kts | 275° |
| 2026-05-06 10:31 | 52.46142 | -12.40549 | 38065 ft | 490 kts | 275° |
| 2026-05-06 10:31 | 52.46426 | -12.51725 | 38063 ft | 490 kts | 274° |
| 2026-05-06 10:32 | 52.46699 | -12.62898 | 38066 ft | 490 kts | 275° |
| 2026-05-06 10:32 | 52.46959 | -12.73996 | 38067 ft | 490 kts | 274° |
| 2026-05-06 10:33 | 52.47211 | -12.85167 | 38069 ft | 490 kts | 274° |
| 2026-05-06 10:33 | 52.47453 | -12.96351 | 38069 ft | 491 kts | 274° |
| 2026-05-06 10:34 | 52.47684 | -13.07530 | 38066 ft | 490 kts | 274° |
| 2026-05-06 10:34 | 52.47903 | -13.18632 | 38072 ft | 490 kts | 274° |
| 2026-05-06 10:35 | 52.48113 | -13.29806 | 38073 ft | 490 kts | 274° |
| 2026-05-06 10:35 | 52.48312 | -13.40982 | 38073 ft | 490 kts | 274° |
| 2026-05-06 10:36 | 52.48501 | -13.52149 | 38070 ft | 489 kts | 274° |
| 2026-05-06 10:36 | 52.48677 | -13.63219 | 38071 ft | 488 kts | 274° |
| 2026-05-06 10:37 | 52.48844 | -13.74360 | 38072 ft | 488 kts | 274° |
| 2026-05-06 10:37 | 52.49001 | -13.85498 | 38070 ft | 488 kts | 274° |
| 2026-05-06 10:38 | 52.49148 | -13.96640 | 38072 ft | 488 kts | 274° |
| 2026-05-06 10:38 | 52.49283 | -14.07706 | 38056 ft | 488 kts | 274° |
| 2026-05-06 10:39 | 52.49408 | -14.18847 | 38071 ft | 488 kts | 274° |
| 2026-05-06 10:39 | 52.49523 | -14.29989 | 38071 ft | 488 kts | 273° |
| 2026-05-06 10:40 | 52.49628 | -14.41161 | 38067 ft | 488 kts | 273° |
| 2026-05-06 10:40 | 52.49722 | -14.52237 | 38077 ft | 489 kts | 273° |
| 2026-05-06 10:41 | 52.49805 | -14.63379 | 38060 ft | 489 kts | 273° |
| 2026-05-06 10:41 | 52.49878 | -14.74530 | 38068 ft | 488 kts | 273° |
| 2026-05-06 10:42 | 52.49941 | -14.85589 | 38076 ft | 488 kts | 273° |
| 2026-05-06 10:42 | 52.50016 | -14.96736 | 38068 ft | 487 kts | 275° |
| 2026-05-06 10:43 | 52.50933 | -15.07699 | 38071 ft | 484 kts | 283° |
| 2026-05-06 10:44 | 52.52872 | -15.23887 | 38069 ft | 483 kts | 283° |
| 2026-05-06 10:44 | 52.54193 | -15.34711 | 38070 ft | 483 kts | 283° |
| 2026-05-06 10:45 | 52.55489 | -15.45541 | 38070 ft | 483 kts | 283° |
| 2026-05-06 10:45 | 52.56766 | -15.56386 | 38073 ft | 483 kts | 283° |
| 2026-05-06 10:46 | 52.58033 | -15.67243 | 38070 ft | 483 kts | 283° |
| 2026-05-06 10:46 | 52.59280 | -15.78022 | 38069 ft | 483 kts | 283° |
| 2026-05-06 10:47 | 52.60527 | -15.88886 | 38069 ft | 483 kts | 283° |
| 2026-05-06 10:47 | 52.61765 | -15.99759 | 38071 ft | 483 kts | 283° |
| 2026-05-06 10:48 | 52.62991 | -16.10622 | 38069 ft | 483 kts | 283° |
| 2026-05-06 10:48 | 52.64204 | -16.21467 | 38058 ft | 482 kts | 282° |
| 2026-05-06 10:49 | 52.65402 | -16.32275 | 38067 ft | 481 kts | 282° |
| 2026-05-06 10:49 | 52.66597 | -16.43144 | 38066 ft | 481 kts | 282° |
| 2026-05-06 10:50 | 52.67771 | -16.53921 | 38071 ft | 481 kts | 282° |
| 2026-05-06 10:50 | 52.68946 | -16.64798 | 38070 ft | 481 kts | 282° |
| 2026-05-06 10:51 | 52.70105 | -16.75630 | 38067 ft | 481 kts | 282° |
| 2026-05-06 10:51 | 52.71251 | -16.86433 | 38070 ft | 481 kts | 282° |
| 2026-05-06 10:52 | 52.72393 | -16.97306 | 38067 ft | 481 kts | 282° |
| 2026-05-06 10:52 | 52.73524 | -17.08164 | 38067 ft | 481 kts | 282° |
| 2026-05-06 10:53 | 52.74648 | -17.19063 | 38074 ft | 481 kts | 281° |
| 2026-05-06 10:53 | 52.75759 | -17.29938 | 38067 ft | 479 kts | 281° |
| 2026-05-06 10:54 | 52.76848 | -17.40697 | 38061 ft | 479 kts | 281° |
| 2026-05-06 10:54 | 52.77940 | -17.51591 | 38064 ft | 479 kts | 281° |
| 2026-05-06 10:55 | 52.79015 | -17.62418 | 38067 ft | 479 kts | 281° |
| 2026-05-06 10:55 | 52.80086 | -17.73314 | 38067 ft | 479 kts | 281° |
| 2026-05-06 10:56 | 52.81141 | -17.84142 | 38067 ft | 479 kts | 281° |
| 2026-05-06 10:56 | 52.82190 | -17.95022 | 38063 ft | 479 kts | 281° |
| 2026-05-06 10:57 | 52.83222 | -18.05838 | 38067 ft | 479 kts | 281° |
| 2026-05-06 10:57 | 52.84252 | -18.16741 | 38067 ft | 479 kts | 280° |
| 2026-05-06 10:58 | 52.85266 | -18.27586 | 38066 ft | 478 kts | 280° |
| 2026-05-06 10:58 | 52.86271 | -18.38442 | 38067 ft | 477 kts | 280° |
| 2026-05-06 10:59 | 52.87262 | -18.49252 | 38056 ft | 477 kts | 280° |
| 2026-05-06 10:59 | 52.88246 | -18.60108 | 38071 ft | 477 kts | 280° |
| 2026-05-06 11:00 | 52.89219 | -18.70951 | 38069 ft | 477 kts | 280° |
| 2026-05-06 11:00 | 52.90183 | -18.81807 | 38074 ft | 477 kts | 279° |
| 2026-05-06 11:01 | 52.91140 | -18.92703 | 38068 ft | 477 kts | 279° |
| 2026-05-06 11:01 | 52.92086 | -19.03597 | 38064 ft | 477 kts | 279° |
| 2026-05-06 11:02 | 52.93017 | -19.14433 | 38067 ft | 478 kts | 279° |
| 2026-05-06 11:02 | 52.93944 | -19.25344 | 38069 ft | 478 kts | 279° |
| 2026-05-06 11:03 | 52.94859 | -19.36231 | 38070 ft | 477 kts | 279° |
| 2026-05-06 11:03 | 52.95762 | -19.47102 | 38069 ft | 477 kts | 279° |
| 2026-05-06 11:04 | 52.96656 | -19.57989 | 38069 ft | 477 kts | 279° |
| 2026-05-06 11:04 | 52.97542 | -19.68898 | 38066 ft | 478 kts | 278° |
| 2026-05-06 11:05 | 52.98416 | -19.79786 | 38067 ft | 479 kts | 278° |
| 2026-05-06 11:05 | 52.99286 | -19.90773 | 38069 ft | 479 kts | 278° |
| 2026-05-06 11:06 | 53.00140 | -20.01685 | 38074 ft | 479 kts | 278° |
| 2026-05-06 11:06 | 53.00697 | -20.12719 | 38073 ft | 479 kts | 274° |
| 2026-05-06 11:07 | 53.01048 | -20.23720 | 38072 ft | 480 kts | 274° |
| 2026-05-06 11:07 | 53.01427 | -20.34779 | 38072 ft | 480 kts | 274° |
| 2026-05-06 11:08 | 53.01841 | -20.45837 | 38071 ft | 480 kts | 274° |
| 2026-05-06 11:08 | 53.02259 | -20.56854 | 38075 ft | 480 kts | 274° |
| 2026-05-06 11:09 | 53.02670 | -20.67960 | 38072 ft | 480 kts | 274° |
| 2026-05-06 11:09 | 53.03068 | -20.79019 | 38069 ft | 481 kts | 274° |
| 2026-05-06 11:10 | 53.03455 | -20.90122 | 38073 ft | 482 kts | 273° |
| 2026-05-06 11:10 | 53.03830 | -21.01168 | 38075 ft | 482 kts | 273° |
| 2026-05-06 11:11 | 53.04198 | -21.12302 | 38074 ft | 482 kts | 273° |
| 2026-05-06 11:11 | 53.04553 | -21.23379 | 38072 ft | 482 kts | 273° |
| 2026-05-06 11:12 | 53.04901 | -21.34544 | 38069 ft | 482 kts | 273° |
| 2026-05-06 11:12 | 53.05237 | -21.45658 | 38081 ft | 482 kts | 273° |
| 2026-05-06 11:13 | 53.05563 | -21.56778 | 38077 ft | 482 kts | 273° |
| 2026-05-06 11:13 | 53.05878 | -21.67898 | 38079 ft | 482 kts | 272° |
| 2026-05-06 11:14 | 53.06180 | -21.78935 | 38070 ft | 482 kts | 272° |
| 2026-05-06 11:14 | 53.06476 | -21.90082 | 38076 ft | 482 kts | 272° |
| 2026-05-06 11:15 | 53.06761 | -22.01252 | 38076 ft | 483 kts | 272° |
| 2026-05-06 11:15 | 53.07035 | -22.12379 | 38078 ft | 483 kts | 272° |
| 2026-05-06 11:16 | 53.07298 | -22.23492 | 38078 ft | 483 kts | 272° |
| 2026-05-06 11:16 | 53.07552 | -22.34668 | 38083 ft | 483 kts | 272° |
| 2026-05-06 11:17 | 53.07795 | -22.45814 | 38080 ft | 484 kts | 271° |
| 2026-05-06 11:17 | 53.08029 | -22.57015 | 38080 ft | 484 kts | 271° |
| 2026-05-06 11:18 | 53.08251 | -22.68199 | 38085 ft | 485 kts | 271° |
| 2026-05-06 11:18 | 53.08463 | -22.79377 | 38080 ft | 484 kts | 271° |
| 2026-05-06 11:19 | 53.08663 | -22.90493 | 38091 ft | 484 kts | 271° |
| 2026-05-06 11:19 | 53.08854 | -23.01683 | 38083 ft | 484 kts | 271° |
| 2026-05-06 11:20 | 53.09036 | -23.12921 | 38081 ft | 485 kts | 270° |
| 2026-05-06 11:20 | 53.09206 | -23.24142 | 38092 ft | 485 kts | 270° |
| 2026-05-06 11:21 | 53.09365 | -23.35311 | 38082 ft | 485 kts | 270° |
| 2026-05-06 11:21 | 53.09515 | -23.46508 | 38082 ft | 485 kts | 270° |
| 2026-05-06 11:22 | 53.09654 | -23.57718 | 38084 ft | 485 kts | 270° |
| 2026-05-06 11:22 | 53.09782 | -23.68926 | 38083 ft | 486 kts | 270° |
| 2026-05-06 11:23 | 53.09900 | -23.80166 | 38081 ft | 486 kts | 270° |
| 2026-05-06 11:23 | 53.10007 | -23.91378 | 38090 ft | 486 kts | 270° |
| 2026-05-06 11:24 | 53.10104 | -24.02603 | 38084 ft | 486 kts | 269° |
| 2026-05-06 11:24 | 53.10191 | -24.13859 | 38087 ft | 487 kts | 269° |
| 2026-05-06 11:25 | 53.10267 | -24.25132 | 38086 ft | 487 kts | 269° |
| 2026-05-06 11:25 | 53.10332 | -24.36334 | 38086 ft | 488 kts | 269° |
| 2026-05-06 11:26 | 53.10387 | -24.47682 | 38086 ft | 488 kts | 269° |
| 2026-05-06 11:26 | 53.10431 | -24.58919 | 38086 ft | 488 kts | 269° |
| 2026-05-06 11:27 | 53.10464 | -24.70175 | 38088 ft | 488 kts | 269° |
| 2026-05-06 11:27 | 53.10487 | -24.81443 | 38089 ft | 488 kts | 269° |
| 2026-05-06 11:28 | 53.10499 | -24.92723 | 38084 ft | 489 kts | 269° |
| 2026-05-06 11:28 | 53.10501 | -25.03995 | 38083 ft | 489 kts | 269° |
| 2026-05-06 11:29 | 53.10491 | -25.15287 | 38086 ft | 489 kts | 268° |
| 2026-05-06 11:29 | 53.10472 | -25.26644 | 38087 ft | 489 kts | 268° |
| 2026-05-06 11:30 | 53.10442 | -25.37898 | 38087 ft | 490 kts | 268° |
| 2026-05-06 11:30 | 53.10400 | -25.49203 | 38086 ft | 490 kts | 268° |
| 2026-05-06 11:31 | 53.10348 | -25.60526 | 38084 ft | 489 kts | 268° |
| 2026-05-06 11:31 | 53.10286 | -25.71846 | 38084 ft | 489 kts | 268° |
| 2026-05-06 11:32 | 53.10212 | -25.83125 | 38083 ft | 490 kts | 268° |
| 2026-05-06 11:32 | 53.10128 | -25.94437 | 38080 ft | 490 kts | 268° |
| 2026-05-06 11:33 | 53.10033 | -26.05780 | 38077 ft | 490 kts | 268° |
| 2026-05-06 11:33 | 53.09928 | -26.17046 | 38074 ft | 490 kts | 268° |
| 2026-05-06 11:34 | 53.09811 | -26.28429 | 38075 ft | 490 kts | 268° |
| 2026-05-06 11:34 | 53.09684 | -26.39664 | 38075 ft | 490 kts | 268° |
| 2026-05-06 11:35 | 53.09546 | -26.51012 | 38075 ft | 490 kts | 268° |
| 2026-05-06 11:35 | 53.09397 | -26.62351 | 38074 ft | 490 kts | 267° |
| 2026-05-06 11:36 | 53.09238 | -26.73637 | 38074 ft | 490 kts | 267° |
| 2026-05-06 11:36 | 53.09069 | -26.84943 | 38071 ft | 490 kts | 267° |
| 2026-05-06 11:37 | 53.08887 | -26.96288 | 38073 ft | 490 kts | 267° |
| 2026-05-06 11:37 | 53.08697 | -27.07533 | 38071 ft | 490 kts | 267° |
| 2026-05-06 11:38 | 53.08493 | -27.18916 | 38066 ft | 490 kts | 267° |
| 2026-05-06 11:38 | 53.08281 | -27.30167 | 38061 ft | 490 kts | 267° |
| 2026-05-06 11:39 | 53.08057 | -27.41510 | 38062 ft | 490 kts | 267° |
| 2026-05-06 11:39 | 53.07823 | -27.52782 | 38045 ft | 490 kts | 267° |
| 2026-05-06 11:40 | 53.07577 | -27.64138 | 38049 ft | 491 kts | 267° |
| 2026-05-06 11:40 | 53.07322 | -27.75410 | 38044 ft | 490 kts | 266° |
| 2026-05-06 11:41 | 53.07056 | -27.86716 | 38059 ft | 491 kts | 266° |
| 2026-05-06 11:41 | 53.06776 | -27.98100 | 38039 ft | 491 kts | 266° |
| 2026-05-06 11:42 | 53.06488 | -28.09404 | 38040 ft | 491 kts | 266° |
| 2026-05-06 11:42 | 53.06190 | -28.20685 | 38048 ft | 491 kts | 266° |
| 2026-05-06 11:43 | 53.05878 | -28.32057 | 38039 ft | 491 kts | 266° |
| 2026-05-06 11:43 | 53.05557 | -28.43388 | 38037 ft | 491 kts | 266° |
| 2026-05-06 11:44 | 53.05057 | -28.60311 | 38031 ft | 491 kts | 266° |
| 2026-05-06 11:44 | 53.04708 | -28.71674 | 38042 ft | 492 kts | 266° |
| 2026-05-06 11:45 | 53.04349 | -28.83003 | 38027 ft | 493 kts | 266° |
| 2026-05-06 11:45 | 53.03977 | -28.94401 | 38024 ft | 493 kts | 266° |
| 2026-05-06 11:46 | 53.03596 | -29.05747 | 38025 ft | 493 kts | 266° |
| 2026-05-06 11:46 | 53.03205 | -29.17045 | 38022 ft | 493 kts | 266° |
| 2026-05-06 11:47 | 53.02801 | -29.28422 | 38021 ft | 493 kts | 266° |
| 2026-05-06 11:47 | 53.02386 | -29.39816 | 38026 ft | 494 kts | 266° |
| 2026-05-06 11:48 | 53.01961 | -29.51159 | 38015 ft | 494 kts | 266° |
| 2026-05-06 11:48 | 53.01526 | -29.62490 | 38009 ft | 494 kts | 266° |
| 2026-05-06 11:49 | 53.01078 | -29.73870 | 38014 ft | 494 kts | 266° |
| 2026-05-06 11:49 | 53.00621 | -29.85210 | 38006 ft | 494 kts | 265° |
| 2026-05-06 11:50 | 53.00151 | -29.96581 | 38006 ft | 494 kts | 265° |
| 2026-05-06 11:50 | 52.99783 | -30.07918 | 38010 ft | 494 kts | 268° |
| 2026-05-06 11:51 | 52.99738 | -30.19304 | 38006 ft | 494 kts | 269° |
| 2026-05-06 11:51 | 52.99709 | -30.30729 | 38012 ft | 494 kts | 269° |
| 2026-05-06 11:52 | 52.99618 | -30.42075 | 38006 ft | 492 kts | 268° |
| 2026-05-06 11:52 | 52.99486 | -30.53485 | 38006 ft | 493 kts | 268° |
| 2026-05-06 11:53 | 52.99340 | -30.64774 | 38014 ft | 492 kts | 268° |
| 2026-05-06 11:53 | 52.99184 | -30.76138 | 38015 ft | 492 kts | 268° |
| 2026-05-06 11:54 | 52.99020 | -30.87452 | 38022 ft | 492 kts | 268° |
| 2026-05-06 11:54 | 52.98845 | -30.98775 | 38025 ft | 491 kts | 268° |
| 2026-05-06 11:55 | 52.98660 | -31.10064 | 38027 ft | 492 kts | 268° |
| 2026-05-06 11:55 | 52.98463 | -31.21423 | 38028 ft | 490 kts | 268° |
| 2026-05-06 11:56 | 52.98256 | -31.32735 | 38034 ft | 491 kts | 268° |
| 2026-05-06 11:56 | 52.98039 | -31.44025 | 38027 ft | 490 kts | 268° |
| 2026-05-06 11:57 | 52.97809 | -31.55358 | 38036 ft | 492 kts | 268° |
| 2026-05-06 11:57 | 52.97570 | -31.66691 | 38041 ft | 491 kts | 268° |
| 2026-05-06 11:58 | 52.97321 | -31.77936 | 38039 ft | 492 kts | 267° |
| 2026-05-06 11:58 | 52.97060 | -31.89266 | 38043 ft | 492 kts | 267° |
| 2026-05-06 11:59 | 52.96787 | -32.00619 | 38050 ft | 491 kts | 267° |
| 2026-05-06 11:59 | 52.96504 | -32.11941 | 38047 ft | 494 kts | 267° |
| 2026-05-06 12:00 | 52.96208 | -32.23353 | 38049 ft | 494 kts | 267° |
| 2026-05-06 12:00 | 52.95903 | -32.34691 | 38049 ft | 494 kts | 267° |
| 2026-05-06 12:01 | 52.95588 | -32.46025 | 38054 ft | 494 kts | 267° |
| 2026-05-06 12:01 | 52.95260 | -32.57434 | 38059 ft | 494 kts | 267° |
| 2026-05-06 12:02 | 52.94922 | -32.68789 | 38055 ft | 494 kts | 267° |
| 2026-05-06 12:02 | 52.94574 | -32.80116 | 38064 ft | 494 kts | 267° |
| 2026-05-06 12:03 | 52.94213 | -32.91519 | 38065 ft | 495 kts | 266° |
| 2026-05-06 12:03 | 52.93845 | -33.02792 | 38064 ft | 494 kts | 266° |
| 2026-05-06 12:04 | 52.93461 | -33.14220 | 38066 ft | 495 kts | 266° |
| 2026-05-06 12:04 | 52.93069 | -33.25557 | 38073 ft | 496 kts | 266° |
| 2026-05-06 12:05 | 52.92665 | -33.36943 | 38071 ft | 496 kts | 266° |
| 2026-05-06 12:05 | 52.92250 | -33.48315 | 38073 ft | 496 kts | 266° |
| 2026-05-06 12:06 | 52.91824 | -33.59696 | 38074 ft | 496 kts | 266° |
| 2026-05-06 12:06 | 52.91387 | -33.71074 | 38079 ft | 496 kts | 266° |
| 2026-05-06 12:07 | 52.90938 | -33.82487 | 38081 ft | 496 kts | 266° |
| 2026-05-06 12:07 | 52.90479 | -33.93881 | 38089 ft | 495 kts | 266° |
| 2026-05-06 12:08 | 52.90011 | -34.05206 | 38093 ft | 496 kts | 266° |
| 2026-05-06 12:08 | 52.89530 | -34.16592 | 38090 ft | 496 kts | 266° |
| 2026-05-06 12:09 | 52.89036 | -34.28012 | 38090 ft | 496 kts | 266° |
| 2026-05-06 12:09 | 52.88535 | -34.39353 | 38095 ft | 496 kts | 266° |
| 2026-05-06 12:10 | 52.88022 | -34.50724 | 38096 ft | 496 kts | 266° |
| 2026-05-06 12:10 | 52.87497 | -34.62097 | 38096 ft | 496 kts | 266° |
| 2026-05-06 12:11 | 52.86960 | -34.73501 | 38098 ft | 497 kts | 265° |
| 2026-05-06 12:11 | 52.86416 | -34.84818 | 38101 ft | 497 kts | 265° |
| 2026-05-06 12:12 | 52.85857 | -34.96231 | 38100 ft | 496 kts | 265° |
| 2026-05-06 12:12 | 52.85291 | -35.07552 | 38099 ft | 495 kts | 265° |
| 2026-05-06 12:13 | 52.84711 | -35.18929 | 38106 ft | 495 kts | 265° |
| 2026-05-06 12:13 | 52.84126 | -35.30212 | 38107 ft | 495 kts | 265° |
| 2026-05-06 12:14 | 52.83527 | -35.41541 | 38110 ft | 496 kts | 265° |
| 2026-05-06 12:14 | 52.82916 | -35.52869 | 38106 ft | 495 kts | 265° |
| 2026-05-06 12:15 | 52.82294 | -35.64210 | 38109 ft | 494 kts | 265° |
| 2026-05-06 12:15 | 52.81667 | -35.75456 | 38109 ft | 493 kts | 265° |
| 2026-05-06 12:16 | 52.81028 | -35.86726 | 38107 ft | 493 kts | 265° |
| 2026-05-06 12:16 | 52.80378 | -35.97993 | 38111 ft | 493 kts | 265° |
| 2026-05-06 12:17 | 52.79716 | -36.09258 | 38116 ft | 493 kts | 265° |
| 2026-05-06 12:17 | 52.79045 | -36.20515 | 38119 ft | 492 kts | 265° |
| 2026-05-06 12:18 | 52.78365 | -36.31731 | 38107 ft | 492 kts | 265° |
| 2026-05-06 12:18 | 52.77677 | -36.42919 | 38113 ft | 492 kts | 265° |
| 2026-05-06 12:19 | 52.76976 | -36.54124 | 38108 ft | 492 kts | 265° |
| 2026-05-06 12:19 | 52.76263 | -36.65355 | 38101 ft | 492 kts | 265° |
| 2026-05-06 12:20 | 52.75540 | -36.76575 | 38107 ft | 491 kts | 265° |
| 2026-05-06 12:20 | 52.74807 | -36.87774 | 38119 ft | 491 kts | 265° |
| 2026-05-06 12:21 | 52.74069 | -36.98893 | 38103 ft | 491 kts | 265° |
| 2026-05-06 12:21 | 52.73315 | -37.10095 | 38105 ft | 491 kts | 265° |
| 2026-05-06 12:22 | 52.72551 | -37.21283 | 38110 ft | 491 kts | 265° |
| 2026-05-06 12:22 | 52.71774 | -37.32497 | 38112 ft | 492 kts | 265° |
| 2026-05-06 12:23 | 52.70991 | -37.43645 | 38108 ft | 493 kts | 265° |
| 2026-05-06 12:23 | 52.70193 | -37.54862 | 38108 ft | 493 kts | 265° |
| 2026-05-06 12:24 | 52.69383 | -37.66076 | 38107 ft | 493 kts | 264° |
| 2026-05-06 12:24 | 52.68563 | -37.77287 | 38101 ft | 493 kts | 264° |
| 2026-05-06 12:25 | 52.67739 | -37.88410 | 38111 ft | 492 kts | 264° |
| 2026-05-06 12:25 | 52.66898 | -37.99605 | 38111 ft | 492 kts | 264° |
| 2026-05-06 12:26 | 52.66048 | -38.10790 | 38108 ft | 492 kts | 264° |
| 2026-05-06 12:26 | 52.65333 | -38.20085 | 38108 ft | 492 kts | 264° |
| 2026-05-06 12:27 | 52.64462 | -38.31270 | 38111 ft | 492 kts | 264° |
| 2026-05-06 12:27 | 52.63437 | -38.44269 | 38110 ft | 492 kts | 264° |
| 2026-05-06 12:28 | 52.62544 | -38.55438 | 38113 ft | 493 kts | 264° |
| 2026-05-06 12:28 | 52.61794 | -38.64723 | 38107 ft | 493 kts | 264° |
| 2026-05-06 12:29 | 52.60881 | -38.75892 | 38110 ft | 493 kts | 264° |
| 2026-05-06 12:29 | 52.59958 | -38.87063 | 38111 ft | 493 kts | 264° |
| 2026-05-06 12:30 | 52.58873 | -39.00016 | 38116 ft | 491 kts | 264° |
| 2026-05-06 12:30 | 52.58089 | -39.09264 | 38116 ft | 491 kts | 264° |
| 2026-05-06 12:31 | 52.57138 | -39.20381 | 38115 ft | 491 kts | 264° |
| 2026-05-06 12:31 | 52.56017 | -39.33314 | 38113 ft | 492 kts | 264° |
| 2026-05-06 12:32 | 52.55207 | -39.42565 | 38116 ft | 492 kts | 264° |
| 2026-05-06 12:32 | 52.54223 | -39.53673 | 38115 ft | 491 kts | 264° |
| 2026-05-06 12:33 | 52.53229 | -39.64767 | 38118 ft | 491 kts | 264° |
| 2026-05-06 12:33 | 52.52226 | -39.75860 | 38118 ft | 491 kts | 264° |
| 2026-05-06 12:34 | 52.51213 | -39.86938 | 38122 ft | 491 kts | 264° |
| 2026-05-06 12:34 | 52.50156 | -39.97944 | 38113 ft | 492 kts | 261° |
| 2026-05-06 12:35 | 52.48307 | -40.08762 | 38115 ft | 493 kts | 256° |
| 2026-05-06 12:35 | 52.46216 | -40.19457 | 38116 ft | 492 kts | 255° |
| 2026-05-06 12:36 | 52.44079 | -40.30116 | 38115 ft | 492 kts | 255° |
| 2026-05-06 12:36 | 52.41938 | -40.40788 | 38113 ft | 493 kts | 255° |
| 2026-05-06 12:37 | 52.39814 | -40.51372 | 38102 ft | 492 kts | 255° |
| 2026-05-06 12:37 | 52.37675 | -40.61992 | 38116 ft | 491 kts | 255° |
| 2026-05-06 12:38 | 52.35529 | -40.72592 | 38113 ft | 491 kts | 255° |
| 2026-05-06 12:38 | 52.33387 | -40.83113 | 38116 ft | 491 kts | 255° |
| 2026-05-06 12:39 | 52.31224 | -40.93682 | 38116 ft | 491 kts | 255° |
| 2026-05-06 12:39 | 52.29050 | -41.04242 | 38118 ft | 489 kts | 255° |
| 2026-05-06 12:40 | 52.26874 | -41.14758 | 38121 ft | 489 kts | 255° |
| 2026-05-06 12:40 | 52.24702 | -41.25199 | 38121 ft | 489 kts | 255° |
| 2026-05-06 12:41 | 52.22509 | -41.35689 | 38122 ft | 489 kts | 255° |
| 2026-05-06 12:41 | 52.20306 | -41.46174 | 38097 ft | 488 kts | 255° |
| 2026-05-06 12:42 | 52.18097 | -41.56626 | 38126 ft | 487 kts | 255° |
| 2026-05-06 12:42 | 52.15881 | -41.67063 | 38126 ft | 487 kts | 255° |
| 2026-05-06 12:43 | 52.13673 | -41.77407 | 38129 ft | 487 kts | 255° |
| 2026-05-06 12:43 | 52.11440 | -41.87813 | 38129 ft | 487 kts | 254° |
| 2026-05-06 12:44 | 52.09199 | -41.98207 | 38136 ft | 486 kts | 255° |
| 2026-05-06 12:44 | 52.06955 | -42.08557 | 38131 ft | 485 kts | 255° |
| 2026-05-06 12:45 | 52.04707 | -42.18878 | 38140 ft | 485 kts | 254° |
| 2026-05-06 12:46 | 52.01332 | -42.34280 | 38141 ft | 485 kts | 254° |
| 2026-05-06 12:46 | 51.99060 | -42.44576 | 38132 ft | 484 kts | 254° |
| 2026-05-06 12:47 | 51.96786 | -42.54835 | 38143 ft | 483 kts | 254° |
| 2026-05-06 12:47 | 51.94508 | -42.65066 | 38143 ft | 483 kts | 254° |
| 2026-05-06 12:48 | 51.92235 | -42.75225 | 38139 ft | 483 kts | 254° |
| 2026-05-06 12:48 | 51.89935 | -42.85451 | 38139 ft | 483 kts | 254° |
| 2026-05-06 12:49 | 51.87630 | -42.95645 | 38144 ft | 482 kts | 254° |
| 2026-05-06 12:49 | 51.85323 | -43.05805 | 38147 ft | 481 kts | 254° |
| 2026-05-06 12:50 | 51.83021 | -43.15895 | 38148 ft | 481 kts | 254° |
| 2026-05-06 12:50 | 51.80696 | -43.26032 | 38145 ft | 481 kts | 254° |
| 2026-05-06 12:51 | 51.78363 | -43.36163 | 38137 ft | 481 kts | 254° |
| 2026-05-06 12:51 | 51.76019 | -43.46286 | 38140 ft | 481 kts | 254° |
| 2026-05-06 12:52 | 51.73683 | -43.56331 | 38141 ft | 481 kts | 253° |
| 2026-05-06 12:52 | 51.71323 | -43.66430 | 38146 ft | 481 kts | 253° |
| 2026-05-06 12:53 | 51.68953 | -43.76522 | 38140 ft | 481 kts | 253° |
| 2026-05-06 12:53 | 51.66573 | -43.86611 | 38142 ft | 480 kts | 253° |
| 2026-05-06 12:54 | 51.64200 | -43.96626 | 38144 ft | 480 kts | 253° |
| 2026-05-06 12:54 | 51.61806 | -44.06681 | 38146 ft | 480 kts | 253° |
| 2026-05-06 12:55 | 51.59414 | -44.16682 | 38143 ft | 480 kts | 253° |
| 2026-05-06 12:55 | 51.57024 | -44.26627 | 38135 ft | 480 kts | 253° |
| 2026-05-06 12:56 | 51.54608 | -44.36633 | 38138 ft | 478 kts | 253° |
| 2026-05-06 12:56 | 51.52197 | -44.46576 | 38138 ft | 478 kts | 253° |
| 2026-05-06 12:57 | 51.49835 | -44.56275 | 38142 ft | 478 kts | 253° |
| 2026-05-06 12:57 | 51.47411 | -44.66180 | 38143 ft | 476 kts | 253° |
| 2026-05-06 12:58 | 51.44987 | -44.76035 | 38144 ft | 473 kts | 253° |
| 2026-05-06 12:58 | 51.42568 | -44.85834 | 38143 ft | 472 kts | 253° |
| 2026-05-06 12:59 | 51.40145 | -44.95609 | 38140 ft | 472 kts | 253° |
| 2026-05-06 12:59 | 51.37729 | -45.05309 | 38138 ft | 472 kts | 253° |
| 2026-05-06 13:00 | 51.35288 | -45.15069 | 38112 ft | 472 kts | 253° |
| 2026-05-06 13:00 | 51.32849 | -45.24777 | 38141 ft | 470 kts | 253° |
| 2026-05-06 13:01 | 51.30406 | -45.34458 | 38141 ft | 469 kts | 253° |
| 2026-05-06 13:01 | 51.27973 | -45.44059 | 38134 ft | 469 kts | 252° |
| 2026-05-06 13:02 | 51.25516 | -45.53713 | 38132 ft | 469 kts | 252° |
| 2026-05-06 13:02 | 51.23050 | -45.63361 | 38131 ft | 468 kts | 252° |
| 2026-05-06 13:03 | 51.20591 | -45.72938 | 38130 ft | 466 kts | 252° |
| 2026-05-06 13:03 | 51.18142 | -45.82443 | 38130 ft | 466 kts | 252° |
| 2026-05-06 13:04 | 51.15671 | -45.91988 | 38132 ft | 466 kts | 252° |
| 2026-05-06 13:04 | 51.13192 | -46.01526 | 38124 ft | 465 kts | 252° |
| 2026-05-06 13:05 | 51.10713 | -46.11014 | 38125 ft | 463 kts | 252° |
| 2026-05-06 13:05 | 51.08237 | -46.20453 | 38123 ft | 462 kts | 252° |
| 2026-05-06 13:06 | 51.05772 | -46.29818 | 38123 ft | 462 kts | 252° |
| 2026-05-06 13:06 | 51.03281 | -46.39242 | 38124 ft | 462 kts | 252° |
| 2026-05-06 13:07 | 51.00785 | -46.48649 | 38122 ft | 462 kts | 252° |
| 2026-05-06 13:07 | 50.98293 | -46.57999 | 38114 ft | 461 kts | 251° |
| 2026-05-06 13:08 | 50.95787 | -46.67368 | 38116 ft | 461 kts | 251° |
| 2026-05-06 13:08 | 50.93274 | -46.76719 | 38117 ft | 461 kts | 251° |
| 2026-05-06 13:09 | 50.90770 | -46.86002 | 38115 ft | 461 kts | 251° |
| 2026-05-06 13:09 | 50.88243 | -46.95335 | 38114 ft | 462 kts | 251° |
| 2026-05-06 13:10 | 50.85704 | -47.04671 | 38110 ft | 462 kts | 251° |
| 2026-05-06 13:10 | 50.83160 | -47.13990 | 38110 ft | 461 kts | 251° |
| 2026-05-06 13:11 | 50.80623 | -47.23241 | 38111 ft | 462 kts | 251° |
| 2026-05-06 13:11 | 50.78063 | -47.32544 | 38108 ft | 462 kts | 251° |
| 2026-05-06 13:12 | 50.75491 | -47.41855 | 38111 ft | 463 kts | 250° |
| 2026-05-06 13:12 | 50.72907 | -47.51168 | 38113 ft | 463 kts | 250° |
| 2026-05-06 13:13 | 50.70334 | -47.60404 | 38107 ft | 463 kts | 250° |
| 2026-05-06 13:13 | 50.67721 | -47.69750 | 38104 ft | 463 kts | 250° |
| 2026-05-06 13:14 | 50.65123 | -47.79002 | 38101 ft | 463 kts | 250° |
| 2026-05-06 13:14 | 50.62518 | -47.88246 | 38106 ft | 463 kts | 250° |
| 2026-05-06 13:15 | 50.59897 | -47.97509 | 38106 ft | 463 kts | 250° |
| 2026-05-06 13:15 | 50.57286 | -48.06701 | 38110 ft | 463 kts | 250° |
| 2026-05-06 13:16 | 50.54648 | -48.15952 | 38103 ft | 463 kts | 250° |
| 2026-05-06 13:16 | 50.52007 | -48.25180 | 38109 ft | 463 kts | 250° |
| 2026-05-06 13:17 | 50.49378 | -48.34327 | 38108 ft | 463 kts | 250° |
| 2026-05-06 13:17 | 50.46724 | -48.43529 | 38110 ft | 463 kts | 249° |
| 2026-05-06 13:18 | 50.44063 | -48.52719 | 38111 ft | 463 kts | 249° |
| 2026-05-06 13:18 | 50.41395 | -48.61895 | 38095 ft | 462 kts | 249° |
| 2026-05-06 13:19 | 50.38745 | -48.70973 | 38094 ft | 460 kts | 249° |
| 2026-05-06 13:19 | 50.36079 | -48.80075 | 38099 ft | 460 kts | 249° |
| 2026-05-06 13:20 | 50.33408 | -48.89162 | 38091 ft | 460 kts | 249° |
| 2026-05-06 13:20 | 50.30727 | -48.98246 | 38096 ft | 460 kts | 249° |
| 2026-05-06 13:21 | 50.28042 | -49.07309 | 38095 ft | 459 kts | 249° |
| 2026-05-06 13:21 | 50.25373 | -49.16284 | 38089 ft | 459 kts | 249° |
| 2026-05-06 13:22 | 50.22677 | -49.25317 | 38091 ft | 459 kts | 249° |
| 2026-05-06 13:22 | 50.19976 | -49.34335 | 38094 ft | 459 kts | 249° |
| 2026-05-06 13:23 | 50.17267 | -49.43346 | 38070 ft | 459 kts | 248° |
| 2026-05-06 13:23 | 50.14550 | -49.52345 | 38094 ft | 458 kts | 248° |
| 2026-05-06 13:24 | 50.11846 | -49.61274 | 38094 ft | 458 kts | 248° |
| 2026-05-06 13:24 | 50.09119 | -49.70245 | 38086 ft | 458 kts | 248° |
| 2026-05-06 13:25 | 50.06382 | -49.79213 | 38087 ft | 458 kts | 248° |
| 2026-05-06 13:25 | 50.03639 | -49.88171 | 38088 ft | 458 kts | 248° |
| 2026-05-06 13:26 | 50.00906 | -49.97064 | 38093 ft | 458 kts | 248° |
| 2026-05-06 13:26 | 49.98524 | -50.06156 | 38091 ft | 456 kts | 252° |
| 2026-05-06 13:27 | 49.96297 | -50.15349 | 38081 ft | 455 kts | 252° |
| 2026-05-06 13:27 | 49.94092 | -50.24551 | 38083 ft | 455 kts | 252° |
| 2026-05-06 13:28 | 49.91867 | -50.33779 | 38087 ft | 454 kts | 252° |
| 2026-05-06 13:28 | 49.89643 | -50.42936 | 38087 ft | 453 kts | 252° |
| 2026-05-06 13:29 | 49.87426 | -50.52018 | 38083 ft | 453 kts | 252° |
| 2026-05-06 13:29 | 49.85186 | -50.61154 | 38082 ft | 453 kts | 252° |
| 2026-05-06 13:30 | 49.82939 | -50.70285 | 38086 ft | 453 kts | 252° |
| 2026-05-06 13:30 | 49.80688 | -50.79392 | 38087 ft | 452 kts | 252° |
| 2026-05-06 13:31 | 49.78448 | -50.88418 | 38093 ft | 452 kts | 252° |
| 2026-05-06 13:31 | 49.76191 | -50.97479 | 38078 ft | 451 kts | 251° |
| 2026-05-06 13:32 | 49.73929 | -51.06516 | 38077 ft | 450 kts | 251° |
| 2026-05-06 13:32 | 49.71664 | -51.15535 | 38064 ft | 450 kts | 251° |
| 2026-05-06 13:33 | 49.69404 | -51.24494 | 38078 ft | 451 kts | 251° |
| 2026-05-06 13:33 | 49.67122 | -51.33508 | 38071 ft | 451 kts | 251° |
| 2026-05-06 13:34 | 49.64836 | -51.42498 | 38070 ft | 451 kts | 251° |
| 2026-05-06 13:34 | 49.62530 | -51.51532 | 38071 ft | 451 kts | 251° |
| 2026-05-06 13:35 | 49.60233 | -51.60496 | 38053 ft | 451 kts | 251° |
| 2026-05-06 13:35 | 49.57937 | -51.69420 | 38067 ft | 451 kts | 251° |
| 2026-05-06 13:36 | 49.55618 | -51.78401 | 38065 ft | 451 kts | 250° |
| 2026-05-06 13:36 | 49.53286 | -51.87390 | 38066 ft | 452 kts | 250° |
| 2026-05-06 13:37 | 49.50959 | -51.96332 | 38067 ft | 449 kts | 250° |
| 2026-05-06 13:37 | 49.48657 | -52.05257 | 38067 ft | 448 kts | 251° |
| 2026-05-06 13:38 | 49.46467 | -52.14154 | 38063 ft | 448 kts | 251° |
| 2026-05-06 13:38 | 49.44270 | -52.23111 | 38058 ft | 448 kts | 251° |
| 2026-05-06 13:39 | 49.42050 | -52.32060 | 38064 ft | 448 kts | 251° |
| 2026-05-06 13:39 | 49.39815 | -52.40993 | 38061 ft | 448 kts | 251° |
| 2026-05-06 13:40 | 49.37584 | -52.49866 | 38054 ft | 448 kts | 250° |
| 2026-05-06 13:40 | 49.35325 | -52.58814 | 38055 ft | 448 kts | 250° |
| 2026-05-06 13:41 | 49.33082 | -52.67669 | 38053 ft | 448 kts | 250° |
| 2026-05-06 13:41 | 49.30817 | -52.76574 | 38059 ft | 449 kts | 250° |
| 2026-05-06 13:42 | 49.28548 | -52.85463 | 38055 ft | 447 kts | 250° |
| 2026-05-06 13:42 | 49.26282 | -52.94302 | 38050 ft | 445 kts | 250° |
| 2026-05-06 13:43 | 49.24036 | -53.03030 | 38056 ft | 444 kts | 250° |
| 2026-05-06 13:43 | 49.21768 | -53.11811 | 38056 ft | 444 kts | 250° |
| 2026-05-06 13:44 | 49.19494 | -53.20579 | 38047 ft | 444 kts | 249° |
| 2026-05-06 13:44 | 49.17215 | -53.29336 | 38048 ft | 444 kts | 249° |
| 2026-05-06 13:45 | 49.14927 | -53.38094 | 38048 ft | 444 kts | 249° |
| 2026-05-06 13:45 | 49.11500 | -53.51146 | 38058 ft | 444 kts | 249° |
| 2026-05-06 13:46 | 49.09183 | -53.59930 | 38048 ft | 444 kts | 249° |
| 2026-05-06 13:46 | 49.06882 | -53.68620 | 38057 ft | 444 kts | 249° |
| 2026-05-06 13:47 | 49.04562 | -53.77352 | 38035 ft | 444 kts | 248° |
| 2026-05-06 13:47 | 49.02245 | -53.86038 | 38068 ft | 445 kts | 248° |
| 2026-05-06 13:48 | 48.99906 | -53.94769 | 38055 ft | 446 kts | 248° |
| 2026-05-06 13:48 | 48.97557 | -54.03510 | 38061 ft | 446 kts | 248° |
| 2026-05-06 13:49 | 48.95199 | -54.12246 | 38061 ft | 446 kts | 248° |
| 2026-05-06 13:49 | 48.92838 | -54.20967 | 38066 ft | 446 kts | 248° |
| 2026-05-06 13:50 | 48.90483 | -54.29629 | 38067 ft | 446 kts | 248° |
| 2026-05-06 13:50 | 48.88107 | -54.38338 | 38081 ft | 446 kts | 248° |
| 2026-05-06 13:51 | 48.85724 | -54.47039 | 38079 ft | 446 kts | 248° |
| 2026-05-06 13:51 | 48.83336 | -54.55729 | 38084 ft | 446 kts | 248° |
| 2026-05-06 13:52 | 48.80956 | -54.64359 | 38087 ft | 447 kts | 247° |
| 2026-05-06 13:52 | 48.78544 | -54.73072 | 38087 ft | 449 kts | 246° |
| 2026-05-06 13:53 | 48.76119 | -54.81793 | 38066 ft | 449 kts | 246° |
| 2026-05-06 13:53 | 48.73687 | -54.90509 | 38072 ft | 449 kts | 246° |
| 2026-05-06 13:54 | 48.71267 | -54.99156 | 38061 ft | 449 kts | 246° |
| 2026-05-06 13:54 | 48.68819 | -55.07870 | 38074 ft | 450 kts | 246° |
| 2026-05-06 13:55 | 48.66372 | -55.16547 | 38074 ft | 450 kts | 246° |
| 2026-05-06 13:55 | 48.63900 | -55.25281 | 38078 ft | 450 kts | 246° |
| 2026-05-06 13:56 | 48.61445 | -55.33922 | 38070 ft | 450 kts | 246° |
| 2026-05-06 13:56 | 48.58968 | -55.42612 | 38069 ft | 450 kts | 246° |
| 2026-05-06 13:57 | 48.56482 | -55.51301 | 38079 ft | 452 kts | 245° |
| 2026-05-06 13:57 | 48.53984 | -55.60000 | 38080 ft | 451 kts | 245° |
| 2026-05-06 13:58 | 48.51482 | -55.68680 | 38071 ft | 451 kts | 245° |
| 2026-05-06 13:58 | 48.48972 | -55.77360 | 38052 ft | 451 kts | 245° |
| 2026-05-06 13:59 | 48.46474 | -55.85964 | 38063 ft | 451 kts | 245° |
| 2026-05-06 13:59 | 48.43949 | -55.94632 | 38065 ft | 453 kts | 245° |
| 2026-05-06 14:00 | 48.41412 | -56.03309 | 38062 ft | 453 kts | 244° |
| 2026-05-06 14:00 | 48.38869 | -56.11980 | 38062 ft | 453 kts | 244° |
| 2026-05-06 14:01 | 48.36336 | -56.20580 | 38058 ft | 453 kts | 244° |
| 2026-05-06 14:01 | 48.33776 | -56.29247 | 38059 ft | 453 kts | 244° |
| 2026-05-06 14:02 | 48.31212 | -56.37893 | 38060 ft | 452 kts | 244° |
| 2026-05-06 14:02 | 48.28650 | -56.46504 | 38050 ft | 451 kts | 244° |
| 2026-05-06 14:03 | 48.26100 | -56.55042 | 38061 ft | 451 kts | 244° |
| 2026-05-06 14:03 | 48.23526 | -56.63631 | 38053 ft | 451 kts | 244° |
| 2026-05-06 14:04 | 48.20945 | -56.72214 | 38066 ft | 452 kts | 244° |
| 2026-05-06 14:04 | 48.18356 | -56.80796 | 38085 ft | 453 kts | 244° |
| 2026-05-06 14:05 | 48.15771 | -56.89333 | 38082 ft | 453 kts | 244° |
| 2026-05-06 14:05 | 48.13163 | -56.97917 | 38081 ft | 453 kts | 244° |
| 2026-05-06 14:06 | 48.10551 | -57.06482 | 38111 ft | 453 kts | 244° |
| 2026-05-06 14:06 | 48.07927 | -57.15057 | 38119 ft | 454 kts | 244° |
| 2026-05-06 14:07 | 48.05313 | -57.23575 | 38120 ft | 453 kts | 244° |
| 2026-05-06 14:07 | 48.02678 | -57.32128 | 38119 ft | 453 kts | 244° |
| 2026-05-06 14:08 | 48.00039 | -57.40666 | 38122 ft | 453 kts | 244° |
| 2026-05-06 14:08 | 47.97396 | -57.49187 | 38120 ft | 452 kts | 244° |
| 2026-05-06 14:09 | 47.94759 | -57.57658 | 38133 ft | 453 kts | 244° |
| 2026-05-06 14:09 | 47.92098 | -57.66181 | 38143 ft | 453 kts | 244° |
| 2026-05-06 14:10 | 47.89430 | -57.74695 | 38135 ft | 454 kts | 244° |
| 2026-05-06 14:10 | 47.86753 | -57.83210 | 38136 ft | 454 kts | 244° |
| 2026-05-06 14:11 | 47.84072 | -57.91709 | 38135 ft | 454 kts | 244° |
| 2026-05-06 14:11 | 47.81400 | -58.00149 | 38137 ft | 454 kts | 244° |
| 2026-05-06 14:12 | 47.78705 | -58.08634 | 38125 ft | 452 kts | 244° |
| 2026-05-06 14:12 | 47.76015 | -58.17078 | 38129 ft | 451 kts | 244° |
| 2026-05-06 14:13 | 47.73324 | -58.25494 | 38128 ft | 451 kts | 244° |
| 2026-05-06 14:13 | 47.70643 | -58.33852 | 38126 ft | 451 kts | 244° |
| 2026-05-06 14:14 | 47.67935 | -58.42264 | 38125 ft | 452 kts | 244° |
| 2026-05-06 14:14 | 47.65222 | -58.50668 | 38130 ft | 452 kts | 244° |
| 2026-05-06 14:15 | 47.62500 | -58.59071 | 38129 ft | 452 kts | 244° |
| 2026-05-06 14:15 | 47.59792 | -58.67401 | 38107 ft | 452 kts | 244° |
| 2026-05-06 14:16 | 47.57016 | -58.75912 | 38109 ft | 453 kts | 244° |
| 2026-05-06 14:16 | 47.54296 | -58.84227 | 38109 ft | 453 kts | 244° |
| 2026-05-06 14:17 | 47.51546 | -58.92606 | 38103 ft | 453 kts | 244° |
| 2026-05-06 14:17 | 47.48818 | -59.00889 | 38103 ft | 453 kts | 244° |
| 2026-05-06 14:18 | 47.46053 | -59.09258 | 38093 ft | 453 kts | 244° |
| 2026-05-06 14:18 | 47.43280 | -59.17623 | 38092 ft | 453 kts | 244° |
| 2026-05-06 14:19 | 47.40518 | -59.25930 | 38085 ft | 453 kts | 244° |
| 2026-05-06 14:19 | 47.37734 | -59.34274 | 38083 ft | 453 kts | 244° |
| 2026-05-06 14:20 | 47.34941 | -59.42620 | 38079 ft | 453 kts | 244° |
| 2026-05-06 14:20 | 47.32145 | -59.50944 | 38078 ft | 453 kts | 244° |
| 2026-05-06 14:21 | 47.29347 | -59.59253 | 38073 ft | 453 kts | 244° |
| 2026-05-06 14:21 | 47.26563 | -59.67487 | 38066 ft | 451 kts | 244° |
| 2026-05-06 14:22 | 47.23769 | -59.75730 | 38062 ft | 449 kts | 244° |
| 2026-05-06 14:22 | 47.20975 | -59.83948 | 38042 ft | 449 kts | 244° |
| 2026-05-06 14:23 | 47.18171 | -59.92168 | 38066 ft | 450 kts | 244° |
| 2026-05-06 14:23 | 47.15376 | -60.00335 | 38058 ft | 450 kts | 244° |
| 2026-05-06 14:24 | 47.12556 | -60.08549 | 38057 ft | 450 kts | 244° |
| 2026-05-06 14:24 | 47.09732 | -60.16751 | 38032 ft | 450 kts | 244° |
| 2026-05-06 14:25 | 47.06901 | -60.24946 | 38052 ft | 450 kts | 244° |
| 2026-05-06 14:25 | 47.04066 | -60.33125 | 38045 ft | 450 kts | 244° |
| 2026-05-06 14:26 | 47.01235 | -60.41271 | 38043 ft | 450 kts | 244° |
| 2026-05-06 14:26 | 46.98384 | -60.49441 | 38034 ft | 446 kts | 244° |
| 2026-05-06 14:27 | 46.95593 | -60.57421 | 38008 ft | 444 kts | 244° |
| 2026-05-06 14:27 | 46.92770 | -60.65470 | 38023 ft | 444 kts | 244° |
| 2026-05-06 14:28 | 46.89942 | -60.73509 | 38023 ft | 444 kts | 244° |
| 2026-05-06 14:28 | 46.87131 | -60.81473 | 38039 ft | 443 kts | 244° |
| 2026-05-06 14:29 | 46.84301 | -60.89466 | 38039 ft | 444 kts | 244° |
| 2026-05-06 14:29 | 46.81458 | -60.97472 | 38025 ft | 445 kts | 244° |
| 2026-05-06 14:30 | 46.78616 | -61.05451 | 38024 ft | 445 kts | 244° |
| 2026-05-06 14:30 | 46.75754 | -61.13462 | 38024 ft | 446 kts | 244° |
| 2026-05-06 14:31 | 46.72903 | -61.21419 | 38045 ft | 446 kts | 244° |
| 2026-05-06 14:31 | 46.70019 | -61.29442 | 38011 ft | 444 kts | 243° |
| 2026-05-06 14:32 | 46.67157 | -61.37380 | 38013 ft | 443 kts | 243° |
| 2026-05-06 14:32 | 46.64289 | -61.45313 | 38025 ft | 443 kts | 243° |
| 2026-05-06 14:33 | 46.61435 | -61.53183 | 38004 ft | 443 kts | 243° |
| 2026-05-06 14:33 | 46.58551 | -61.61114 | 38007 ft | 443 kts | 243° |
| 2026-05-06 14:34 | 46.55667 | -61.69019 | 38016 ft | 443 kts | 243° |
| 2026-05-06 14:34 | 46.52773 | -61.76929 | 38012 ft | 443 kts | 243° |
| 2026-05-06 14:35 | 46.49880 | -61.84812 | 38011 ft | 444 kts | 243° |
| 2026-05-06 14:35 | 46.46978 | -61.92699 | 38018 ft | 444 kts | 243° |
| 2026-05-06 14:36 | 46.44079 | -62.00552 | 38020 ft | 443 kts | 243° |
| 2026-05-06 14:36 | 46.41212 | -62.08295 | 38032 ft | 443 kts | 243° |
| 2026-05-06 14:37 | 46.38291 | -62.16164 | 38005 ft | 444 kts | 243° |
| 2026-05-06 14:37 | 46.35361 | -62.24032 | 37999 ft | 444 kts | 243° |
| 2026-05-06 14:38 | 46.32427 | -62.31890 | 38005 ft | 444 kts | 243° |
| 2026-05-06 14:38 | 46.29488 | -62.39737 | 38005 ft | 444 kts | 243° |
| 2026-05-06 14:39 | 46.25714 | -62.49782 | 37998 ft | 446 kts | 243° |
| 2026-05-06 14:39 | 46.19779 | -62.65504 | 37994 ft | 446 kts | 243° |
| 2026-05-06 14:40 | 46.13799 | -62.81207 | 38010 ft | 448 kts | 241° |
| 2026-05-06 14:40 | 46.07532 | -62.96731 | 38007 ft | 448 kts | 245° |
| 2026-05-06 14:41 | 46.01913 | -63.12421 | 38001 ft | 449 kts | 242° |
| 2026-05-06 14:41 | 45.96947 | -63.25346 | 38003 ft | 450 kts | 243° |
| 2026-05-06 14:42 | 45.90867 | -63.41060 | 37999 ft | 450 kts | 243° |
| 2026-05-06 14:42 | 45.84756 | -63.56761 | 37998 ft | 451 kts | 243° |
| 2026-05-06 14:43 | 45.78570 | -63.72282 | 37995 ft | 451 kts | 242° |
| 2026-05-06 14:43 | 45.72387 | -63.87884 | 37987 ft | 451 kts | 242° |
| 2026-05-06 14:44 | 45.66200 | -64.03475 | 37989 ft | 451 kts | 242° |
| 2026-05-06 14:45 | 45.56855 | -64.26848 | 37996 ft | 453 kts | 242° |
| 2026-05-06 14:45 | 45.50583 | -64.42424 | 38001 ft | 453 kts | 242° |
| 2026-05-06 14:46 | 45.44313 | -64.57906 | 38006 ft | 455 kts | 242° |
| 2026-05-06 14:46 | 45.37974 | -64.73473 | 38007 ft | 455 kts | 242° |
| 2026-05-06 14:47 | 45.31604 | -64.89030 | 38005 ft | 456 kts | 241° |
| 2026-05-06 14:47 | 45.25203 | -65.04578 | 38010 ft | 456 kts | 241° |
| 2026-05-06 14:48 | 45.18779 | -65.20095 | 38009 ft | 456 kts | 241° |
| 2026-05-06 14:48 | 45.12382 | -65.35460 | 38009 ft | 456 kts | 241° |
| 2026-05-06 14:49 | 45.05923 | -65.50892 | 38010 ft | 456 kts | 241° |
| 2026-05-06 14:49 | 44.99461 | -65.66247 | 38009 ft | 452 kts | 241° |
| 2026-05-06 14:50 | 44.93005 | -65.81504 | 38009 ft | 452 kts | 241° |
| 2026-05-06 14:50 | 44.86526 | -65.96734 | 38004 ft | 453 kts | 241° |
| 2026-05-06 14:51 | 44.80075 | -66.11816 | 37991 ft | 453 kts | 241° |
| 2026-05-06 14:51 | 44.73559 | -66.26969 | 38008 ft | 452 kts | 241° |
| 2026-05-06 14:52 | 44.67021 | -66.42093 | 37997 ft | 452 kts | 241° |
| 2026-05-06 14:52 | 44.60480 | -66.57144 | 37990 ft | 452 kts | 241° |
| 2026-05-06 14:53 | 44.53958 | -66.72071 | 37994 ft | 452 kts | 241° |
| 2026-05-06 14:53 | 44.47380 | -66.87051 | 38001 ft | 452 kts | 241° |
| 2026-05-06 14:54 | 44.41187 | -67.02216 | 38005 ft | 445 kts | 251° |
| 2026-05-06 14:54 | 44.37660 | -67.15724 | 37983 ft | 445 kts | 252° |
| 2026-05-06 14:55 | 44.32796 | -67.34642 | 37987 ft | 445 kts | 252° |
| 2026-05-06 14:55 | 44.28598 | -67.50862 | 37989 ft | 444 kts | 252° |
| 2026-05-06 14:56 | 44.25066 | -67.64425 | 37983 ft | 443 kts | 251° |
| 2026-05-06 14:56 | 44.20149 | -67.83174 | 37957 ft | 443 kts | 251° |
| 2026-05-06 14:57 | 44.16616 | -67.96558 | 37959 ft | 442 kts | 251° |
| 2026-05-06 14:57 | 44.12365 | -68.12560 | 37957 ft | 440 kts | 251° |
| 2026-05-06 14:58 | 44.08096 | -68.28526 | 37939 ft | 440 kts | 251° |
| 2026-05-06 14:58 | 44.03841 | -68.44333 | 37971 ft | 440 kts | 251° |
| 2026-05-06 14:59 | 43.99545 | -68.60185 | 37940 ft | 437 kts | 251° |
| 2026-05-06 14:59 | 43.95237 | -68.75981 | 37919 ft | 437 kts | 251° |
| 2026-05-06 15:00 | 43.90911 | -68.91740 | 37933 ft | 437 kts | 251° |
| 2026-05-06 15:00 | 43.86615 | -69.07287 | 37923 ft | 426 kts | 251° |
| 2026-05-06 15:00 | 43.84563 | -69.14668 | 37925 ft | 400 kts | 251° |
| 2026-05-06 15:01 | 43.82576 | -69.21811 | 37917 ft | 397 kts | 251° |
| 2026-05-06 15:01 | 43.78604 | -69.36028 | 37909 ft | 396 kts | 251° |
| 2026-05-06 15:02 | 43.74615 | -69.50212 | 37892 ft | 393 kts | 251° |
| 2026-05-06 15:02 | 43.70644 | -69.64253 | 37895 ft | 392 kts | 251° |
| 2026-05-06 15:03 | 43.66690 | -69.78159 | 37891 ft | 391 kts | 251° |
| 2026-05-06 15:03 | 43.62694 | -69.92130 | 37891 ft | 391 kts | 251° |
| 2026-05-06 15:04 | 43.58697 | -70.06024 | 37875 ft | 388 kts | 251° |
| 2026-05-06 15:04 | 43.54698 | -70.19854 | 37863 ft | 388 kts | 251° |
| 2026-05-06 15:05 | 43.50686 | -70.33653 | 37855 ft | 388 kts | 251° |
| 2026-05-06 15:05 | 43.46690 | -70.47323 | 37869 ft | 386 kts | 251° |
| 2026-05-06 15:06 | 43.41175 | -70.60020 | 37870 ft | 399 kts | 230° |
| 2026-05-06 15:06 | 43.36557 | -70.64488 | 37871 ft | 416 kts | 214° |
| 2026-05-06 15:06 | 43.31009 | -70.67208 | 37861 ft | 426 kts | 207° |
| 2026-05-06 15:07 | 43.19817 | -70.72554 | 37850 ft | 426 kts | 209° |
| 2026-05-06 15:07 | 43.08666 | -70.77996 | 37850 ft | 425 kts | 209° |
| 2026-05-06 15:08 | 42.97587 | -70.83393 | 37824 ft | 425 kts | 209° |
| 2026-05-06 15:08 | 42.86427 | -70.88810 | 37894 ft | 425 kts | 210° |
| 2026-05-06 15:09 | 42.75305 | -70.94189 | 37893 ft | 425 kts | 210° |
| 2026-05-06 15:09 | 42.64163 | -70.99552 | 37898 ft | 425 kts | 210° |
| 2026-05-06 15:10 | 42.53045 | -71.04887 | 37895 ft | 428 kts | 210° |
| 2026-05-06 15:10 | 42.41813 | -71.10254 | 37886 ft | 430 kts | 210° |
| 2026-05-06 15:11 | 42.30486 | -71.15646 | 37910 ft | 432 kts | 210° |
| 2026-05-06 15:11 | 42.19135 | -71.21030 | 37907 ft | 434 kts | 210° |
| 2026-05-06 15:12 | 42.07811 | -71.26378 | 37925 ft | 434 kts | 210° |
| 2026-05-06 15:12 | 41.98433 | -71.30794 | 37931 ft | 435 kts | 210° |
| 2026-05-06 15:13 | 41.92717 | -71.33478 | 37933 ft | 435 kts | 210° |
| 2026-05-06 15:13 | 41.87002 | -71.36156 | 37915 ft | 436 kts | 210° |
| 2026-05-06 15:14 | 41.81269 | -71.38840 | 37956 ft | 437 kts | 210° |
| 2026-05-06 15:14 | 41.75566 | -71.41514 | 37947 ft | 436 kts | 211° |
| 2026-05-06 15:14 | 41.72831 | -71.43132 | 37950 ft | 424 kts | 219° |
| 2026-05-06 15:15 | 41.70396 | -71.45247 | 37934 ft | 412 kts | 227° |
| 2026-05-06 15:15 | 41.66000 | -71.50110 | 37961 ft | 410 kts | 230° |
| 2026-05-06 15:16 | 41.61634 | -71.55013 | 37953 ft | 410 kts | 229° |
| 2026-05-06 15:16 | 41.57271 | -71.59879 | 37946 ft | 407 kts | 230° |
| 2026-05-06 15:17 | 41.52957 | -71.64680 | 37937 ft | 406 kts | 230° |
| 2026-05-06 15:17 | 41.48607 | -71.69511 | 37956 ft | 407 kts | 230° |
| 2026-05-06 15:18 | 41.44247 | -71.74342 | 37970 ft | 408 kts | 230° |
| 2026-05-06 15:18 | 41.39881 | -71.79170 | 37971 ft | 408 kts | 230° |
| 2026-05-06 15:19 | 41.35518 | -71.83986 | 37970 ft | 408 kts | 230° |
| 2026-05-06 15:19 | 41.31148 | -71.88801 | 37971 ft | 408 kts | 230° |
| 2026-05-06 15:20 | 41.28163 | -71.92083 | 37723 ft | 403 kts | 230° |
| 2026-05-06 15:20 | 41.26002 | -71.94465 | 36839 ft | 407 kts | 229° |
| 2026-05-06 15:20 | 41.23804 | -71.96889 | 35826 ft | 414 kts | 227° |
| 2026-05-06 15:20 | 41.21567 | -71.99348 | 34911 ft | 420 kts | 226° |
| 2026-05-06 15:21 | 41.19313 | -72.01816 | 34253 ft | 420 kts | 226° |
| 2026-05-06 15:21 | 41.17074 | -72.04256 | 33413 ft | 410 kts | 226° |
| 2026-05-06 15:21 | 41.14885 | -72.06642 | 32151 ft | 405 kts | 225° |
| 2026-05-06 15:21 | 41.12751 | -72.08976 | 30965 ft | 401 kts | 225° |
| 2026-05-06 15:22 | 41.10788 | -72.11522 | 29827 ft | 389 kts | 236° |
| 2026-05-06 15:22 | 41.09384 | -72.14508 | 28555 ft | 377 kts | 248° |
| 2026-05-06 15:22 | 41.08478 | -72.17733 | 27314 ft | 372 kts | 253° |
| 2026-05-06 15:22 | 41.07684 | -72.20982 | 26125 ft | 368 kts | 253° |
| 2026-05-06 15:23 | 41.06903 | -72.24195 | 25000 ft | 365 kts | 252° |
| 2026-05-06 15:23 | 41.06124 | -72.27377 | 23993 ft | 360 kts | 252° |
| 2026-05-06 15:23 | 41.05354 | -72.30500 | 22951 ft | 354 kts | 252° |
| 2026-05-06 15:23 | 41.04604 | -72.33531 | 21841 ft | 348 kts | 251° |
| 2026-05-06 15:24 | 41.03855 | -72.36548 | 20779 ft | 342 kts | 250° |
| 2026-05-06 15:24 | 41.03115 | -72.39523 | 19676 ft | 338 kts | 250° |
| 2026-05-06 15:24 | 41.02385 | -72.42455 | 18681 ft | 333 kts | 249° |
| 2026-05-06 15:24 | 41.01666 | -72.45333 | 17645 ft | 326 kts | 249° |
| 2026-05-06 15:25 | 41.00959 | -72.48160 | 16568 ft | 321 kts | 249° |
| 2026-05-06 15:25 | 41.00255 | -72.50969 | 15770 ft | 322 kts | 248° |
| 2026-05-06 15:25 | 40.99557 | -72.53752 | 15350 ft | 316 kts | 249° |
| 2026-05-06 15:25 | 40.98882 | -72.56492 | 14874 ft | 311 kts | 248° |
| 2026-05-06 15:26 | 40.98208 | -72.59202 | 14372 ft | 309 kts | 249° |
| 2026-05-06 15:26 | 40.97551 | -72.61849 | 13947 ft | 305 kts | 248° |
| 2026-05-06 15:26 | 40.96891 | -72.64493 | 13436 ft | 301 kts | 248° |
| 2026-05-06 15:26 | 40.96234 | -72.67112 | 12872 ft | 299 kts | 248° |
| 2026-05-06 15:27 | 40.95577 | -72.69711 | 12338 ft | 296 kts | 247° |
| 2026-05-06 15:27 | 40.94916 | -72.72282 | 12084 ft | 295 kts | 247° |
| 2026-05-06 15:27 | 40.94258 | -72.74852 | 12048 ft | 296 kts | 247° |
| 2026-05-06 15:27 | 40.93574 | -72.77416 | 12024 ft | 294 kts | 244° |
| 2026-05-06 15:28 | 40.92589 | -72.79756 | 12036 ft | 290 kts | 231° |
| 2026-05-06 15:28 | 40.91176 | -72.81641 | 12028 ft | 289 kts | 219° |
| 2026-05-06 15:28 | 40.89588 | -72.83204 | 11978 ft | 288 kts | 216° |
| 2026-05-06 15:28 | 40.87978 | -72.84724 | 11497 ft | 283 kts | 216° |
| 2026-05-06 15:29 | 40.86377 | -72.86247 | 10903 ft | 284 kts | 217° |
| 2026-05-06 15:29 | 40.84804 | -72.87763 | 10630 ft | 274 kts | 216° |
| 2026-05-06 15:29 | 40.83293 | -72.89201 | 10440 ft | 262 kts | 216° |
| 2026-05-06 15:29 | 40.81847 | -72.90575 | 10232 ft | 251 kts | 216° |
| 2026-05-06 15:30 | 40.80458 | -72.91912 | 9924 ft | 245 kts | 217° |
| 2026-05-06 15:30 | 40.79090 | -72.93232 | 9553 ft | 242 kts | 217° |
| 2026-05-06 15:30 | 40.77733 | -72.94536 | 9160 ft | 240 kts | 217° |
| 2026-05-06 15:30 | 40.76399 | -72.95814 | 8672 ft | 241 kts | 217° |
| 2026-05-06 15:31 | 40.75022 | -72.97133 | 8183 ft | 241 kts | 217° |
| 2026-05-06 15:31 | 40.73688 | -72.98408 | 7746 ft | 240 kts | 217° |
| 2026-05-06 15:31 | 40.72340 | -72.99696 | 7298 ft | 239 kts | 217° |
| 2026-05-06 15:32 | 40.69782 | -73.02466 | 6349 ft | 240 kts | 229° |
| 2026-05-06 15:32 | 40.68933 | -73.04358 | 5901 ft | 242 kts | 245° |
| 2026-05-06 15:32 | 40.68576 | -73.06536 | 5493 ft | 246 kts | 261° |
| 2026-05-06 15:32 | 40.68551 | -73.08785 | 5140 ft | 245 kts | 264° |
| 2026-05-06 15:33 | 40.68584 | -73.11036 | 5018 ft | 246 kts | 265° |
| 2026-05-06 15:33 | 40.68616 | -73.13293 | 5005 ft | 246 kts | 264° |
| 2026-05-06 15:33 | 40.68633 | -73.14827 | 5003 ft | 246 kts | 264° |
| 2026-05-06 15:36 | 40.68641 | -73.15626 | 5007 ft | 246 kts | 264° |
| 2026-05-06 15:36 | 40.68653 | -73.17071 | 5013 ft | 245 kts | 264° |
| 2026-05-06 15:37 | 40.68659 | -73.19074 | 5017 ft | 244 kts | 263° |
| 2026-05-06 15:38 | 40.68661 | -73.21293 | 4996 ft | 241 kts | 264° |
| 2026-05-06 15:38 | 40.68683 | -73.23522 | 5002 ft | 245 kts | 264° |
| 2026-05-06 15:38 | 40.68697 | -73.25770 | 5000 ft | 245 kts | 264° |
| 2026-05-06 15:38 | 40.68690 | -73.28021 | 4990 ft | 246 kts | 263° |
| 2026-05-06 15:39 | 40.68698 | -73.30269 | 4852 ft | 245 kts | 265° |
| 2026-05-06 15:39 | 40.68721 | -73.32492 | 4584 ft | 241 kts | 264° |
| 2026-05-06 15:39 | 40.68935 | -73.34698 | 4216 ft | 247 kts | 277° |
| 2026-05-06 15:39 | 40.69566 | -73.36791 | 3799 ft | 250 kts | 286° |
| 2026-05-06 15:40 | 40.70320 | -73.38846 | 3403 ft | 248 kts | 287° |
| 2026-05-06 15:40 | 40.70683 | -73.39824 | 3222 ft | 247 kts | 287° |
| 2026-05-06 15:41 | 40.70933 | -73.40500 | 3119 ft | 245 kts | 286° |
| 2026-05-06 15:41 | 40.71667 | -73.42524 | 3006 ft | 245 kts | 286° |
| 2026-05-06 15:42 | 40.72398 | -73.44554 | 2996 ft | 245 kts | 286° |
| 2026-05-06 15:42 | 40.73085 | -73.46463 | 2998 ft | 245 kts | 286° |
| 2026-05-06 15:42 | 40.73796 | -73.48424 | 2991 ft | 228 kts | 285° |
| 2026-05-06 15:42 | 40.74458 | -73.50237 | 2993 ft | 214 kts | 285° |
| 2026-05-06 15:43 | 40.75089 | -73.52016 | 2759 ft | 214 kts | 284° |
| 2026-05-06 15:43 | 40.75711 | -73.53788 | 2455 ft | 212 kts | 284° |
| 2026-05-06 15:43 | 40.76334 | -73.55531 | 2105 ft | 209 kts | 285° |
| 2026-05-06 15:43 | 40.76958 | -73.57266 | 1994 ft | 205 kts | 285° |
| 2026-05-06 15:44 | 40.77552 | -73.58898 | 2004 ft | 191 kts | 284° |
| 2026-05-06 15:44 | 40.78111 | -73.60469 | 2005 ft | 188 kts | 284° |
| 2026-05-06 15:44 | 40.78306 | -73.61023 | 1979 ft | 188 kts | 283° |
| 2026-05-06 15:44 | 40.78842 | -73.62589 | 1973 ft | 183 kts | 281° |
| 2026-05-06 15:45 | 40.79053 | -73.64074 | 1976 ft | 152 kts | 252° |
| 2026-05-06 15:45 | 40.78523 | -73.65149 | 1982 ft | 143 kts | 225° |
| 2026-05-06 15:45 | 40.77796 | -73.66077 | 1979 ft | 147 kts | 223° |
| 2026-05-06 15:45 | 40.77039 | -73.67022 | 1995 ft | 152 kts | 222° |
| 2026-05-06 15:46 | 40.76266 | -73.67983 | 1998 ft | 153 kts | 223° |
| 2026-05-06 15:46 | 40.75470 | -73.68796 | 1974 ft | 134 kts | 213° |
| 2026-05-06 15:46 | 40.74706 | -73.69397 | 1987 ft | 123 kts | 213° |
| 2026-05-06 15:46 | 40.73970 | -73.69963 | 2001 ft | 123 kts | 213° |
| 2026-05-06 15:47 | 40.73229 | -73.70520 | 1991 ft | 123 kts | 212° |
| 2026-05-06 15:47 | 40.72514 | -73.71039 | 1891 ft | 115 kts | 210° |
| 2026-05-06 15:47 | 40.71826 | -73.71523 | 1743 ft | 110 kts | 212° |
| 2026-05-06 15:47 | 40.71146 | -73.72011 | 1598 ft | 112 kts | 211° |
| 2026-05-06 15:48 | 40.70458 | -73.72503 | 1446 ft | 113 kts | 210° |
| 2026-05-06 15:48 | 40.69767 | -73.72992 | 1299 ft | 113 kts | 210° |
| 2026-05-06 15:48 | 40.69177 | -73.73412 | 1167 ft | 113 kts | 209° |
| 2026-05-06 15:49 | 40.69168 | -73.73418 | 1163 ft | 113 kts | 209° |
| 2026-05-06 15:49 | 40.68469 | -73.73914 | 1015 ft | 115 kts | 209° |
| 2026-05-06 15:49 | 40.67773 | -73.74408 | 852 ft | 115 kts | 208° |
| 2026-05-06 15:49 | 40.67082 | -73.74902 | 698 ft | 114 kts | 207° |
| 2026-05-06 15:50 | 40.66428 | -73.75349 | 593 ft | 115 kts | 204° |
| 2026-05-06 15:50 | 40.66259 | -73.75468 | 547 ft | 115 kts | 205° |
| 2026-05-06 15:50 | 40.65674 | -73.75875 | 386 ft | 111 kts | 202° |
| 2026-05-06 15:51 | 40.64999 | -73.76382 | 235 ft | 114 kts | 206° |
| 2026-05-06 15:51 | 40.64356 | -73.76884 | 89 ft | 101 kts | 207° |
| 2026-05-06 15:51 | 40.63853 | -73.77280 | 28 ft | 84 kts | 217° |
| 2026-05-06 15:51 | 40.63445 | -73.77580 | 30 ft | 56 kts | 213° |
| 2026-05-06 15:52 | 40.63171 | -73.77806 | 33 ft | 43 kts | 210° |
| 2026-05-06 15:52 | 40.62985 | -73.77949 | 31 ft | 33 kts | 210° |
| 2026-05-06 15:52 | 40.62846 | -73.78061 | 31 ft | 21 kts | 211° |
| 2026-05-06 15:52 | 40.62761 | -73.78126 | 30 ft | 12 kts | 215° |
| 2026-05-06 15:53 | 40.62700 | -73.78179 | 32 ft | 11 kts | 215° |
| 2026-05-06 15:53 | 40.62654 | -73.78244 | 34 ft | 9 kts | 243° |
| 2026-05-06 15:53 | 40.62657 | -73.78328 | 33 ft | 10 kts | 308° |
| 2026-05-06 15:53 | 40.62730 | -73.78330 | 31 ft | 13 kts | 22° |
| 2026-05-06 15:54 | 40.62791 | -73.78286 | 29 ft | 18 kts | 30° |
| 2026-05-06 15:54 | 40.62846 | -73.78235 | 28 ft | 19 kts | 34° |
| 2026-05-06 15:54 | 40.62861 | -73.78224 | 28 ft | 19 kts | 26° |
| 2026-05-06 15:55 | 40.62958 | -73.78163 | 30 ft | 18 kts | 34° |
| 2026-05-06 15:55 | 40.63058 | -73.78083 | 30 ft | 20 kts | 31° |